Terminal Aerodrome Forecast
Issued by NWS Wichita, KS

Home | Current Version | Previous Version | Graphics & Text | Print | Product List | Glossary On
Versions: 1 2 3 4 5 6 7 8 9 10 11 12 13 14 15 16 17 18 19 20
891
FTUS43 KICT 190522
TAFICT
TAF
KICT 190522Z 1906/2006 18010KT P6SM SCT250
     FM191700 19016G23KT P6SM SCT250
     FM200000 17012KT P6SM SCT250=

USA.gov is the U.S. government's official web portal to all federal, state and local government web resources and services.